Flight Track Log - Related Links

Times and Time Zones

All times are in EDT time to prevent confusion due to time zone crossing. See the DAL3672 flight status page for this flight to view local times or setup timezone preferences in your user account.

Time Position Orientation Groundspeed Altitude Reporting Facility
EDT Latitude Longitude Course Direction KTS MPH feet Rate Location/Type
Wed 12:32:50 PM 42.9667 -71.4500 360° North 181 208 2,200  Level KA90
Wed 12:33:50 PM 43.0175 -71.4944 327° Northwest 213 245 4,500 2,550 Climbing Boston Center
Wed 12:34:50 PM 43.0661 -71.5619 315° West 228 262 7,300 2,777 Climbing Boston Center
Wed 12:35:00 PM 42.9500 -71.9136 270° West  Level FlightAware Approximate
Wed 12:35:51 PM 43.1164 -71.6294 316° Northwest 247 284 10,100  Level Boston Center
Wed 12:36:00 PM 42.9500 -72.0348 270° West  Level FlightAware Approximate
Wed 12:36:51 PM 43.1400 -71.7175 290° West 252 290 11,400  Level Boston Center
Wed 12:37:00 PM 42.9501 -72.1561 270° West  Level FlightAware Approximate
Wed 12:37:49 PM 43.1428 -71.8369 272° West 288 331 13,000  Level Boston Center
Wed 12:38:49 PM 43.1456 -71.9536 272° West 313 360 14,400 1,600 Climbing Boston Center
Wed 12:39:49 PM 43.1481 -72.0758 272° West 324 373 16,200 1,686 Climbing Boston Center
Wed 12:40:50 PM 43.1503 -72.2011 271° West 329 379 17,800 1,463 Climbing Boston Center
Wed 12:41:52 PM 43.1547 -72.3206 273° West 324 373 19,200 1,261 Climbing Boston Center
Wed 12:42:49 PM 43.1569 -72.4400 272° West 324 373 20,300 1,068 Climbing Boston Center
Wed 12:43:50 PM 43.1589 -72.5625 271° West 324 373 21,300 992 Climbing Boston Center
Wed 12:44:50 PM 43.1628 -72.6847 273° West 329 379 22,300 900 Climbing Boston Center
Wed 12:45:50 PM 43.1625 -72.8131 270° West 329 379 23,100 793 Climbing Boston Center
Wed 12:46:51 PM 43.1642 -72.9411 271° West 329 379 23,900 744 Climbing Boston Center
Wed 12:47:51 PM 43.1678 -73.0719 272° West 334 384 24,600 694 Climbing Boston Center
Wed 12:48:52 PM 43.1689 -73.2031 271° West 339 390 25,300 756 Climbing Boston Center
Wed 12:49:50 PM 43.1700 -73.3369 271° West 351 404 26,100 712 Climbing Boston Center
Wed 12:50:50 PM 43.1692 -73.4564 269° West 351 404 26,700 555 Climbing Boston Center
Wed 12:51:49 PM 43.1700 -73.5903 271° West 351 404 27,200 458 Climbing Boston Center
Wed 12:53:01 PM 43.1725 -73.7239 272° West 351 404 27,700 361 Climbing Boston Center
Wed 12:54:02 PM 43.1708 -73.8833 269° West 346 398 28,000 148 Climbing Boston Center
Wed 12:55:03 PM 43.1711 -74.0172 270° West 346 398 28,000  Level Boston Center
Wed 12:56:03 PM 43.1711 -74.1539 270° West 351 404 28,000  Level Boston Center
Wed 12:57:01 PM 43.1731 -74.2906 271° West 351 404 28,000  Level Boston Center
Wed 12:58:01 PM 43.1731 -74.4244 270° West 351 404 28,000  Level Boston Center
Wed 12:59:02 PM 43.1725 -74.5639 270° West 356 410 28,000  Level Boston Center
Wed 01:00:04 PM 43.1742 -74.6978 271° West 361 415 28,000  Level Boston Center
Wed 01:01:01 PM 43.1736 -74.8344 270° West 361 415 28,000  Level Boston Center
Wed 01:02:02 PM 43.1725 -74.9711 269° West 366 421 28,000  Level Boston Center
Wed 01:03:02 PM 43.1694 -75.1106 268° West 366 421 28,000  Level Boston Center
Wed 01:04:03 PM 43.1700 -75.2614 270° West 366 421 28,000  Level Boston Center
Wed 01:05:03 PM 43.1706 -75.4011 270° West 366 421 28,000  Level Boston Center
Wed 01:06:13 PM 43.1689 -75.5406 269° West 366 421 28,000  Level Boston Center
Wed 01:07:13 PM 43.1686 -75.7056 270° West 366 421 28,000  Level Boston Center
Wed 01:08:13 PM 43.1667 -75.8450 269° West 366 421 28,000  Level Boston Center
Wed 01:09:14 PM 43.1667 -75.9789 270° West 366 421 28,000  Level Boston Center
Wed 01:11:15 PM 43.1567 -76.2511 267° West 365 420 28,000  Level Cleveland Center
Wed 01:12:15 PM 43.1450 -76.3886 263° West 370 426 28,000  Level Cleveland Center
Wed 01:13:15 PM 43.1331 -76.5233 263° West 365 420 28,000  Level Cleveland Center
Wed 01:14:15 PM 43.1231 -76.6575 264° West 365 420 28,000  Level Cleveland Center
Wed 01:15:15 PM 43.1111 -76.7950 263° West 370 426 28,000  Level Cleveland Center
Wed 01:16:15 PM 43.0986 -76.9294 263° West 370 426 28,000  Level Cleveland Center
Wed 01:17:14 PM 43.0861 -77.0636 263° West 370 426 28,000  Level Cleveland Center
Wed 01:18:14 PM 43.0736 -77.2008 263° West 370 426 28,000  Level Cleveland Center
Wed 01:19:15 PM 43.0608 -77.3353 263° West 370 426 28,000  Level Cleveland Center
Wed 01:20:14 PM 43.0478 -77.4722 263° West 370 426 28,000  Level Cleveland Center
Wed 01:21:14 PM 43.0364 -77.5950 263° West 370 426 28,000  Level Cleveland Center
Wed 01:22:15 PM 43.0233 -77.7319 263° West 370 426 28,000  Level Cleveland Center
Wed 01:23:15 PM 43.0097 -77.8689 262° West 370 426 28,000  Level Cleveland Center
Wed 01:24:14 PM 42.9964 -78.0086 263° West 370 426 28,000  Level Cleveland Center
Wed 01:25:15 PM 42.9828 -78.1481 262° West 370 426 28,000  Level Cleveland Center
Wed 01:26:14 PM 42.9689 -78.2878 262° West 370 426 28,000  Level Cleveland Center
Wed 01:27:15 PM 42.9528 -78.4244 261° West 376 433 28,000  Level Cleveland Center
Wed 01:28:15 PM 42.9408 -78.5639 263° West 371 427 28,000  Level Cleveland Center
Wed 01:29:15 PM 42.9242 -78.7006 261° West 371 427 28,000  Level Cleveland Center
Wed 01:30:15 PM 42.9036 -78.8400 259° West 371 427 28,000  Level Cleveland Center
Wed 01:31:15 PM 42.8847 -78.9794 260° West 371 427 28,000  Level Cleveland Center
Wed 01:32:14 PM 42.8636 -79.1189 258° West 371 427 28,000  Level Cleveland Center
Wed 01:33:14 PM 42.8425 -79.2581 258° West 376 433 28,000  Level Cleveland Center
Wed 01:34:15 PM 42.8231 -79.3944 259° West 376 433 28,000  Level Cleveland Center
Wed 01:35:15 PM 42.8036 -79.5361 259° West 376 433 28,000  Level Cleveland Center
Wed 01:36:15 PM 42.7817 -79.6753 258° West 371 427 28,000  Level Cleveland Center
Wed 01:37:15 PM 42.7600 -79.8142 258° West 371 427 28,000  Level Cleveland Center
Wed 01:38:15 PM 42.7483 -79.9556 264° West 371 427 28,000  Level Cleveland Center
Wed 01:39:14 PM 42.7406 -80.1111 266° West 380 437 28,000  Level Cleveland Center
Wed 01:40:15 PM 42.7347 -80.2525 267° West 386 444 28,000  Level Cleveland Center
Wed 01:41:15 PM 42.7289 -80.3825 267° West 386 444 28,000  Level Cleveland Center
Wed 01:42:15 PM 42.7228 -80.5267 267° West 386 444 28,000  Level Cleveland Center
Wed 01:43:15 PM 42.7186 -80.6708 268° West 386 444 28,000  Level Cleveland Center
Wed 01:44:15 PM 42.7100 -80.8092 265° West 386 444 28,000  Level Cleveland Center
Wed 01:45:15 PM 42.7014 -80.9561 265° West 386 444 28,000 -200 Level Cleveland Center
Wed 01:46:15 PM 42.6819 -81.0972 259° West 381 438 27,600 -450 Descending Cleveland Center
Wed 01:47:15 PM 42.6667 -81.2411 262° West 381 438 27,100 -500 Descending Cleveland Center
Wed 01:48:15 PM 42.6492 -81.3961 261° West 387 445 26,600 -550 Descending Cleveland Center
Wed 01:49:15 PM 42.6333 -81.5314 261° West 382 440 26,000 -700 Descending Cleveland Center
Wed 01:50:15 PM 42.6156 -81.6667 260° West 373 429 25,200 -1,450 Descending Cleveland Center
Wed 01:51:15 PM 42.5997 -81.7961 261° West 366 421 23,100 -2,050 Descending Cleveland Center
Wed 01:52:15 PM 42.5836 -81.9225 260° West 360 414 21,100 -2,000 Descending Cleveland Center
Wed 01:53:15 PM 42.5675 -82.0492 260° West 348 400 19,100 -1,750 Descending Cleveland Center
Wed 01:54:15 PM 42.5533 -82.1728 261° West 342 394 17,600 -1,667 Descending Cleveland Center
Wed 01:54:45 PM 42.5464 -82.2347 261° West 332 382 16,600 -1,900 Descending Cleveland Center
Wed 01:55:15 PM 42.5369 -82.2964 258° West 342 394 15,700 -1,935 Descending Cleveland Center
Wed 01:55:47 PM 42.5317 -82.3722 265° West 340 391 14,600 -1,900 Descending Cleveland Center
Wed 01:56:15 PM 42.5228 -82.4200 256° West 342 394 13,800 -1,701 Descending Cleveland Center
Wed 01:56:54 PM 42.5128 -82.5069 261° West 334 384 12,700 -1,600 Descending Cleveland Center
Wed 01:57:15 PM 42.5061 -82.5433 256° West 337 388 12,200 -643 Descending Cleveland Center
Wed 01:57:50 PM 42.4861 -82.6103 248° West 320 368 12,100 -100 Descending Cleveland Center
Wed 01:58:15 PM 42.4686 -82.6547 242° Southwest 325 374 12,100  Level Cleveland Center
Wed 01:58:51 PM 42.4486 -82.7161 246° West 315 362 12,100  Level Cleveland Center
Wed 01:59:15 PM 42.4311 -82.7606 242° Southwest 320 368 12,100  Level Cleveland Center
Wed 01:59:52 PM 42.4069 -82.8328 246° West 316 364 12,100  Level Cleveland Center
Wed 02:00:15 PM 42.3917 -82.8689 240° Southwest 320 368 12,100  Level Cleveland Center
Wed 02:00:53 PM 42.3672 -82.9383 245° Southwest 318 366 12,100 -100 Level Cleveland Center
Wed 02:01:15 PM 42.3542 -82.9742 244° Southwest 320 368 12,000  Descending Cleveland Center
Wed 02:01:54 PM 42.3317 -83.0436 246° West 291 335 12,100 -100 Climbing Cleveland Center
Wed 02:02:15 PM 42.3186 -83.0683 234° Southwest 305 351 11,900  Descending Cleveland Center
Wed 02:02:56 PM 42.3008 -83.1211 246° West 205 236 12,100 100 Climbing Cleveland Center
Wed 02:03:15 PM 42.2919 -83.1458 244° Southwest 268 308 12,000  Descending Cleveland Center
Wed 02:03:30 PM 42.2822 -83.1633 233° Southwest 234 269 12,100  Climbing FAA TRACON SMA TRACON (SMA)
Wed 02:03:50 PM 42.2633 -83.1758 206° Southwest 236 272 12,000 -750 Descending FAA TRACON SMA TRACON (SMA)
Wed 02:04:10 PM 42.2447 -83.1883 206° Southwest 240 276 11,600 -1,500 Descending FAA TRACON SMA TRACON (SMA)
Wed 02:04:30 PM 42.2211 -83.2036 206° Southwest 233 268 11,000 -1,350 Descending FAA TRACON SMA TRACON (SMA)
Wed 02:04:50 PM 42.2033 -83.2150 205° Southwest 234 269 10,700 -1,050 Descending FAA TRACON SMA TRACON (SMA)
Wed 02:05:10 PM 42.1856 -83.2278 208° Southwest 233 268 10,300 -1,400 Descending FAA TRACON SMA TRACON (SMA)
Wed 02:05:50 PM 42.1458 -83.2544 206° Southwest 232 267 9,300 -1,400 Descending FAA TRACON SMA TRACON (SMA)
Wed 02:06:10 PM 42.1281 -83.2669 208° Southwest 232 267 8,900 -1,500 Descending FAA TRACON SMA TRACON (SMA)
Wed 02:06:30 PM 42.1064 -83.2828 208° Southwest 230 265 8,300 -1,538 Descending FAA TRACON SMA TRACON (SMA)
Wed 02:06:49 PM 42.0894 -83.2964 211° Southwest 231 266 7,900 -1,077 Descending FAA TRACON SMA TRACON (SMA)
Wed 02:07:09 PM 42.0733 -83.3097 212° Southwest 225 259 7,600 -1,050 Descending FAA TRACON SMA TRACON (SMA)
Wed 02:07:29 PM 42.0575 -83.3231 212° Southwest 219 252 7,200 -1,350 Descending FAA TRACON SMA TRACON (SMA)
Wed 02:07:49 PM 42.0381 -83.3394 212° Southwest 215 247 6,700 -1,050 Descending FAA TRACON SMA TRACON (SMA)
Wed 02:08:09 PM 42.0242 -83.3542 218° Southwest 207 238 6,500 -750 Descending FAA TRACON SMA TRACON (SMA)
Wed 02:08:29 PM 42.0186 -83.3814 255° West 200 230 6,200 -1,050 Descending FAA TRACON SMA TRACON (SMA)
Wed 02:08:49 PM 42.0228 -83.4031 285° West 194 223 5,800 -1,463 Descending FAA TRACON SMA TRACON (SMA)
Wed 02:09:10 PM 42.0267 -83.4242 284° West 195 224 5,200 -1,902 Descending FAA TRACON SMA TRACON (SMA)
Wed 02:09:30 PM 42.0403 -83.4397 320° Northwest 201 231 4,500 -1,650 Descending FAA TRACON SMA TRACON (SMA)
Wed 02:09:50 PM 42.0589 -83.4419 355° North 192 221 4,100 -1,200 Descending FAA TRACON SMA TRACON (SMA)
Wed 02:10:10 PM 42.0786 -83.4383 North 181 208 3,700 -1,200 Descending FAA TRACON SMA TRACON (SMA)
Wed 02:10:30 PM 42.0908 -83.4306 25° Northeast 176 203 3,300 -1,200 Descending FAA TRACON SMA TRACON (SMA)

Login

Don't have an account? Register now (free) for customized features, flight alerts, and more!